Portada
METAR-TAF:

METAR-TAF

Aeroports :

Orlhac, França

latitud: 44-53N, longitud: 002-25E, altitud: 639 m

Observació

L'informe es va fer fa 21 minuts, a les 14:00 UTC
Vent 13 kt del Sud, variant entre Sud-Est i Sud/Sud-Oest
Temperatura 19°C
Humitat 30%
Pressió 1024 hPa
Visibilitat 10 km o més
sense núvols per sota de 1500 mi sense presència de cumulonimbus.

METAR: LFLW 191400Z AUTO 17013KT 140V200 CAVOK 19/01 Q1024 NOSIG

Hora: 16:21 (14:21 UTC)

Pronòstic

L'informe es va fer fa 3 hores i 21 minuts, a les 11:00 UTC
Pronòstic vàlid del 19 a les 12 UTC al 19 a les 21 UTC
Vent 12 kt del Sud-Est amb ràfegues de 22 kt
Visibilitat 10 km o més
sense núvols per sota de 1500 mi sense presència de cumulonimbus.
Evolucionant progressivament
l' 19 a les 15 UTC al 19 a les 17 UTC
Vent 5 kt del Est/Sud-Est

TAF: LFLW 191100Z 1912/1921 14012G22KT CAVOK BECMG 1915/1917 12005KT

Observacions i pronòstics meteorològics de més de 4000 aeroports (METAR i TAF).

Les estacions disponibles són els punts grocs i vermells al mapa.

Posi el ratolí al punt desitjat per veure el nom de l'estació.

Feu clic per veure les observacions i els pronòstics meteorològics.

Per canviar el mapa: feu clic els botons verds amb una creu de color negre per apropar; al botó verd amb un guió per allunyar la imatge; o en les fletxes verdes per a mapes adjacents.


METAR-TAF: